sensor_id;sensor_type;location;lat;lon;timestamp;temperature;humidity
12060;DHT22;6091;51.432;6.880;2023-02-10T00:01:34;21.00;31.70
12060;DHT22;6091;51.432;6.880;2023-02-10T00:04:02;21.00;31.70
12060;DHT22;6091;51.432;6.880;2023-02-10T00:06:31;21.00;31.70
12060;DHT22;6091;51.432;6.880;2023-02-10T00:09:00;21.00;31.70
12060;DHT22;6091;51.432;6.880;2023-02-10T00:11:28;21.00;31.80
12060;DHT22;6091;51.432;6.880;2023-02-10T00:14:16;21.00;31.70
12060;DHT22;6091;51.432;6.880;2023-02-10T00:16:44;21.00;31.80
12060;DHT22;6091;51.432;6.880;2023-02-10T00:19:11;21.00;31.80
12060;DHT22;6091;51.432;6.880;2023-02-10T00:21:38;21.00;31.80
12060;DHT22;6091;51.432;6.880;2023-02-10T00:24:05;20.90;31.70
12060;DHT22;6091;51.432;6.880;2023-02-10T00:26:32;21.00;31.80
12060;DHT22;6091;51.432;6.880;2023-02-10T00:28:59;21.00;31.80
12060;DHT22;6091;51.432;6.880;2023-02-10T00:31:26;20.90;31.70
12060;DHT22;6091;51.432;6.880;2023-02-10T00:33:53;21.00;31.80
12060;DHT22;6091;51.432;6.880;2023-02-10T00:36:20;20.90;31.70
12060;DHT22;6091;51.432;6.880;2023-02-10T00:38:48;20.90;31.70
12060;DHT22;6091;51.432;6.880;2023-02-10T00:41:17;20.90;31.70
12060;DHT22;6091;51.432;6.880;2023-02-10T00:43:46;20.90;31.80
12060;DHT22;6091;51.432;6.880;2023-02-10T00:46:16;20.90;31.80
12060;DHT22;6091;51.432;6.880;2023-02-10T00:48:45;20.90;31.80
12060;DHT22;6091;51.432;6.880;2023-02-10T00:51:13;20.90;31.80
12060;DHT22;6091;51.432;6.880;2023-02-10T00:53:41;20.90;31.80
12060;DHT22;6091;51.432;6.880;2023-02-10T00:56:09;20.90;31.80
12060;DHT22;6091;51.432;6.880;2023-02-10T00:58:37;20.90;31.80
12060;DHT22;6091;51.432;6.880;2023-02-10T01:01:04;20.90;31.80
12060;DHT22;6091;51.432;6.880;2023-02-10T01:03:32;20.80;31.80
12060;DHT22;6091;51.432;6.880;2023-02-10T01:06:00;20.80;31.80
12060;DHT22;6091;51.432;6.880;2023-02-10T01:08:27;20.90;31.80
12060;DHT22;6091;51.432;6.880;2023-02-10T01:11:13;20.80;31.80
12060;DHT22;6091;51.432;6.880;2023-02-10T01:13:41;20.80;31.90
12060;DHT22;6091;51.432;6.880;2023-02-10T01:16:12;20.80;31.80
12060;DHT22;6091;51.432;6.880;2023-02-10T01:18:43;20.80;31.80
12060;DHT22;6091;51.432;6.880;2023-02-10T01:21:14;20.80;31.80
12060;DHT22;6091;51.432;6.880;2023-02-10T01:23:44;20.80;31.80
12060;DHT22;6091;51.432;6.880;2023-02-10T01:26:12;20.80;31.80
12060;DHT22;6091;51.432;6.880;2023-02-10T01:28:39;20.80;31.80
12060;DHT22;6091;51.432;6.880;2023-02-10T01:31:09;20.80;31.80
12060;DHT22;6091;51.432;6.880;2023-02-10T01:33:41;20.80;31.90
12060;DHT22;6091;51.432;6.880;2023-02-10T01:36:15;20.80;31.80
12060;DHT22;6091;51.432;6.880;2023-02-10T01:38:43;20.80;31.90
12060;DHT22;6091;51.432;6.880;2023-02-10T01:41:14;20.70;31.80
12060;DHT22;6091;51.432;6.880;2023-02-10T01:44:03;20.70;31.80
12060;DHT22;6091;51.432;6.880;2023-02-10T01:46:34;20.70;31.90
12060;DHT22;6091;51.432;6.880;2023-02-10T01:49:08;20.70;31.80
12060;DHT22;6091;51.432;6.880;2023-02-10T01:54:33;20.70;31.90
12060;DHT22;6091;51.432;6.880;2023-02-10T01:57:22;20.70;31.90
12060;DHT22;6091;51.432;6.880;2023-02-10T01:59:49;20.70;31.80
12060;DHT22;6091;51.432;6.880;2023-02-10T02:02:18;20.70;31.80
12060;DHT22;6091;51.432;6.880;2023-02-10T02:04:49;20.70;31.80
12060;DHT22;6091;51.432;6.880;2023-02-10T02:07:21;20.70;31.90
12060;DHT22;6091;51.432;6.880;2023-02-10T02:09:52;20.70;31.90
12060;DHT22;6091;51.432;6.880;2023-02-10T02:15:48;20.70;32.10
12060;DHT22;6091;51.432;6.880;2023-02-10T02:24:01;20.60;31.80
12060;DHT22;6091;51.432;6.880;2023-02-10T02:34:02;20.70;32.00
12060;DHT22;6091;51.432;6.880;2023-02-10T02:36:38;20.60;31.80
12060;DHT22;6091;51.432;6.880;2023-02-10T02:39:08;20.60;31.90
12060;DHT22;6091;51.432;6.880;2023-02-10T02:41:36;20.60;31.90
12060;DHT22;6091;51.432;6.880;2023-02-10T02:44:04;20.50;31.90
12060;DHT22;6091;51.432;6.880;2023-02-10T02:46:40;20.60;31.90
12060;DHT22;6091;51.432;6.880;2023-02-10T02:49:54;20.60;31.90
12060;DHT22;6091;51.432;6.880;2023-02-10T02:52:40;20.60;32.00
12060;DHT22;6091;51.432;6.880;2023-02-10T02:55:45;20.60;32.00
12060;DHT22;6091;51.432;6.880;2023-02-10T03:01:09;20.50;31.90
12060;DHT22;6091;51.432;6.880;2023-02-10T03:03:44;20.50;31.90
12060;DHT22;6091;51.432;6.880;2023-02-10T03:06:11;20.50;31.90
12060;DHT22;6091;51.432;6.880;2023-02-10T03:08:40;20.40;31.80
12060;DHT22;6091;51.432;6.880;2023-02-10T03:11:08;20.40;31.90
12060;DHT22;6091;51.432;6.880;2023-02-10T03:13:35;20.50;32.00
12060;DHT22;6091;51.432;6.880;2023-02-10T03:16:02;20.50;32.00
12060;DHT22;6091;51.432;6.880;2023-02-10T03:18:29;20.40;31.90
12060;DHT22;6091;51.432;6.880;2023-02-10T03:20:56;20.40;31.90
12060;DHT22;6091;51.432;6.880;2023-02-10T03:23:24;20.40;31.90
12060;DHT22;6091;51.432;6.880;2023-02-10T03:25:51;20.40;31.90
12060;DHT22;6091;51.432;6.880;2023-02-10T03:28:18;20.40;31.90
12060;DHT22;6091;51.432;6.880;2023-02-10T03:30:45;20.40;32.00
12060;DHT22;6091;51.432;6.880;2023-02-10T03:33:16;20.40;32.00
12060;DHT22;6091;51.432;6.880;2023-02-10T03:35:45;20.40;32.00
12060;DHT22;6091;51.432;6.880;2023-02-10T03:38:13;20.40;32.00
12060;DHT22;6091;51.432;6.880;2023-02-10T03:40:41;20.40;32.00
12060;DHT22;6091;51.432;6.880;2023-02-10T03:43:08;20.40;32.00
12060;DHT22;6091;51.432;6.880;2023-02-10T03:45:37;20.30;32.00
12060;DHT22;6091;51.432;6.880;2023-02-10T03:48:05;20.30;32.00
12060;DHT22;6091;51.432;6.880;2023-02-10T03:50:32;20.30;32.00
12060;DHT22;6091;51.432;6.880;2023-02-10T03:52:59;20.30;32.00
12060;DHT22;6091;51.432;6.880;2023-02-10T03:55:26;20.30;32.00
12060;DHT22;6091;51.432;6.880;2023-02-10T03:57:53;20.30;32.00
12060;DHT22;6091;51.432;6.880;2023-02-10T04:00:21;20.30;32.00
12060;DHT22;6091;51.432;6.880;2023-02-10T04:02:48;20.30;32.00
12060;DHT22;6091;51.432;6.880;2023-02-10T04:05:15;20.30;32.10
12060;DHT22;6091;51.432;6.880;2023-02-10T04:07:42;20.30;32.00
12060;DHT22;6091;51.432;6.880;2023-02-10T04:10:09;20.30;32.10
12060;DHT22;6091;51.432;6.880;2023-02-10T04:12:36;20.20;32.00
12060;DHT22;6091;51.432;6.880;2023-02-10T04:15:05;20.20;32.00
12060;DHT22;6091;51.432;6.880;2023-02-10T04:17:33;20.20;32.00
12060;DHT22;6091;51.432;6.880;2023-02-10T04:20:00;20.20;32.00
12060;DHT22;6091;51.432;6.880;2023-02-10T04:22:27;20.20;32.00
12060;DHT22;6091;51.432;6.880;2023-02-10T04:24:54;20.20;32.00
12060;DHT22;6091;51.432;6.880;2023-02-10T04:27:21;20.20;32.10
12060;DHT22;6091;51.432;6.880;2023-02-10T04:29:48;20.20;32.10
12060;DHT22;6091;51.432;6.880;2023-02-10T04:32:14;20.20;32.70
12060;DHT22;6091;51.432;6.880;2023-02-10T04:34:41;20.20;32.10
12060;DHT22;6091;51.432;6.880;2023-02-10T04:37:09;20.10;32.10
12060;DHT22;6091;51.432;6.880;2023-02-10T04:39:36;20.20;32.10
12060;DHT22;6091;51.432;6.880;2023-02-10T04:42:03;20.20;32.10
12060;DHT22;6091;51.432;6.880;2023-02-10T04:44:30;20.10;32.00
12060;DHT22;6091;51.432;6.880;2023-02-10T04:46:57;20.10;32.10
12060;DHT22;6091;51.432;6.880;2023-02-10T04:49:25;20.20;32.10
12060;DHT22;6091;51.432;6.880;2023-02-10T04:51:53;20.10;32.10
12060;DHT22;6091;51.432;6.880;2023-02-10T04:54:21;20.10;32.10
12060;DHT22;6091;51.432;6.880;2023-02-10T04:56:49;20.10;32.10
12060;DHT22;6091;51.432;6.880;2023-02-10T04:59:16;20.10;32.10
12060;DHT22;6091;51.432;6.880;2023-02-10T05:01:43;20.10;32.20
12060;DHT22;6091;51.432;6.880;2023-02-10T05:04:10;20.10;32.20
12060;DHT22;6091;51.432;6.880;2023-02-10T05:06:37;20.10;32.10
12060;DHT22;6091;51.432;6.880;2023-02-10T05:09:04;20.10;32.20
12060;DHT22;6091;51.432;6.880;2023-02-10T05:11:31;20.10;32.20
12060;DHT22;6091;51.432;6.880;2023-02-10T05:13:57;20.10;32.20
12060;DHT22;6091;51.432;6.880;2023-02-10T05:16:25;20.10;32.20
12060;DHT22;6091;51.432;6.880;2023-02-10T05:18:52;20.00;32.10
12060;DHT22;6091;51.432;6.880;2023-02-10T05:21:19;20.10;32.20
12060;DHT22;6091;51.432;6.880;2023-02-10T05:23:46;20.00;32.10
12060;DHT22;6091;51.432;6.880;2023-02-10T05:26:13;20.00;32.10
12060;DHT22;6091;51.432;6.880;2023-02-10T05:28:40;20.00;32.10
12060;DHT22;6091;51.432;6.880;2023-02-10T05:31:07;20.00;32.20
12060;DHT22;6091;51.432;6.880;2023-02-10T05:33:35;21.20;33.20
12060;DHT22;6091;51.432;6.880;2023-02-10T05:36:03;20.00;32.20
12060;DHT22;6091;51.432;6.880;2023-02-10T05:38:31;20.00;32.20
12060;DHT22;6091;51.432;6.880;2023-02-10T05:40:58;20.00;32.20
12060;DHT22;6091;51.432;6.880;2023-02-10T05:43:25;20.00;32.20
12060;DHT22;6091;51.432;6.880;2023-02-10T05:45:52;20.00;32.20
12060;DHT22;6091;51.432;6.880;2023-02-10T05:48:19;20.00;32.20
12060;DHT22;6091;51.432;6.880;2023-02-10T05:50:50;20.00;32.20
12060;DHT22;6091;51.432;6.880;2023-02-10T05:53:18;20.00;32.30
12060;DHT22;6091;51.432;6.880;2023-02-10T05:55:45;20.00;32.20
12060;DHT22;6091;51.432;6.880;2023-02-10T05:58:13;20.00;32.30
12060;DHT22;6091;51.432;6.880;2023-02-10T06:00:40;20.00;32.30
12060;DHT22;6091;51.432;6.880;2023-02-10T06:03:07;19.90;32.20
12060;DHT22;6091;51.432;6.880;2023-02-10T06:05:35;19.90;32.20
12060;DHT22;6091;51.432;6.880;2023-02-10T06:08:02;20.00;32.30
12060;DHT22;6091;51.432;6.880;2023-02-10T06:10:29;20.00;32.30
12060;DHT22;6091;51.432;6.880;2023-02-10T06:12:56;20.00;32.30
12060;DHT22;6091;51.432;6.880;2023-02-10T06:15:23;19.90;32.20
12060;DHT22;6091;51.432;6.880;2023-02-10T06:17:50;19.90;32.20
12060;DHT22;6091;51.432;6.880;2023-02-10T06:20:17;19.90;32.20
12060;DHT22;6091;51.432;6.880;2023-02-10T06:22:44;20.00;32.30
12060;DHT22;6091;51.432;6.880;2023-02-10T06:25:11;19.90;32.30
12060;DHT22;6091;51.432;6.880;2023-02-10T06:27:38;19.90;32.20
12060;DHT22;6091;51.432;6.880;2023-02-10T06:30:05;19.90;32.30
12060;DHT22;6091;51.432;6.880;2023-02-10T06:32:33;19.90;32.30
12060;DHT22;6091;51.432;6.880;2023-02-10T06:35:00;19.90;32.30
12060;DHT22;6091;51.432;6.880;2023-02-10T06:37:29;19.90;32.30
12060;DHT22;6091;51.432;6.880;2023-02-10T06:39:56;19.90;32.50
12060;DHT22;6091;51.432;6.880;2023-02-10T06:42:23;19.90;32.60
12060;DHT22;6091;51.432;6.880;2023-02-10T06:44:50;20.00;32.80
12060;DHT22;6091;51.432;6.880;2023-02-10T06:47:17;20.10;33.10
12060;DHT22;6091;51.432;6.880;2023-02-10T06:49:44;19.60;32.70
12060;DHT22;6091;51.432;6.880;2023-02-10T06:52:11;20.30;33.30
12060;DHT22;6091;51.432;6.880;2023-02-10T06:54:43;20.40;33.30
12060;DHT22;6091;51.432;6.880;2023-02-10T06:57:11;20.60;33.40
12060;DHT22;6091;51.432;6.880;2023-02-10T06:59:38;20.70;33.50
12060;DHT22;6091;51.432;6.880;2023-02-10T07:02:05;20.90;33.50
12060;DHT22;6091;51.432;6.880;2023-02-10T07:04:32;21.00;33.50
12060;DHT22;6091;51.432;6.880;2023-02-10T07:06:59;21.20;33.60
12060;DHT22;6091;51.432;6.880;2023-02-10T07:09:26;21.40;33.60
12060;DHT22;6091;51.432;6.880;2023-02-10T07:11:53;21.50;33.60
12060;DHT22;6091;51.432;6.880;2023-02-10T07:14:20;21.70;33.60
12060;DHT22;6091;51.432;6.880;2023-02-10T07:16:47;21.40;33.30
12060;DHT22;6091;51.432;6.880;2023-02-10T07:19:14;21.90;33.70
12060;DHT22;6091;51.432;6.880;2023-02-10T07:21:42;22.10;33.70
12060;DHT22;6091;51.432;6.880;2023-02-10T07:24:09;22.20;33.60
12060;DHT22;6091;51.432;6.880;2023-02-10T07:26:36;22.40;33.60
12060;DHT22;6091;51.432;6.880;2023-02-10T07:29:03;22.50;33.50
12060;DHT22;6091;51.432;6.880;2023-02-10T07:31:30;22.60;33.40
12060;DHT22;6091;51.432;6.880;2023-02-10T07:34:02;22.70;33.30
12060;DHT22;6091;51.432;6.880;2023-02-10T07:36:30;22.80;33.40
12060;DHT22;6091;51.432;6.880;2023-02-10T07:38:57;22.90;33.40
12060;DHT22;6091;51.432;6.880;2023-02-10T07:41:24;23.00;33.20
12060;DHT22;6091;51.432;6.880;2023-02-10T07:43:52;23.10;33.50
12060;DHT22;6091;51.432;6.880;2023-02-10T07:46:19;23.20;33.40
12060;DHT22;6091;51.432;6.880;2023-02-10T07:48:46;23.30;33.30
12060;DHT22;6091;51.432;6.880;2023-02-10T07:51:13;23.40;33.20
12060;DHT22;6091;51.432;6.880;2023-02-10T07:53:40;23.50;33.20
12060;DHT22;6091;51.432;6.880;2023-02-10T07:56:09;23.60;33.10
12060;DHT22;6091;51.432;6.880;2023-02-10T07:58:37;23.70;33.10
12060;DHT22;6091;51.432;6.880;2023-02-10T08:01:08;23.80;33.00
12060;DHT22;6091;51.432;6.880;2023-02-10T08:03:37;23.80;32.80
12060;DHT22;6091;51.432;6.880;2023-02-10T08:06:05;23.90;32.90
12060;DHT22;6091;51.432;6.880;2023-02-10T08:08:33;23.90;32.80
12060;DHT22;6091;51.432;6.880;2023-02-10T08:11:03;24.00;32.90
12060;DHT22;6091;51.432;6.880;2023-02-10T08:13:32;24.10;32.80
12060;DHT22;6091;51.432;6.880;2023-02-10T08:16:04;24.10;32.80
12060;DHT22;6091;51.432;6.880;2023-02-10T08:18:32;24.20;32.80
12060;DHT22;6091;51.432;6.880;2023-02-10T08:20:59;24.20;32.80
12060;DHT22;6091;51.432;6.880;2023-02-10T08:23:27;24.30;32.80
12060;DHT22;6091;51.432;6.880;2023-02-10T08:25:54;24.30;32.80
12060;DHT22;6091;51.432;6.880;2023-02-10T08:28:21;24.40;32.80
12060;DHT22;6091;51.432;6.880;2023-02-10T08:30:48;24.40;32.70
12060;DHT22;6091;51.432;6.880;2023-02-10T08:33:15;24.40;32.70
12060;DHT22;6091;51.432;6.880;2023-02-10T08:35:42;24.50;32.70
12060;DHT22;6091;51.432;6.880;2023-02-10T08:38:09;24.50;32.70
12060;DHT22;6091;51.432;6.880;2023-02-10T08:40:36;24.50;32.60
12060;DHT22;6091;51.432;6.880;2023-02-10T08:43:04;24.60;32.60
12060;DHT22;6091;51.432;6.880;2023-02-10T08:45:31;24.60;32.60
12060;DHT22;6091;51.432;6.880;2023-02-10T08:47:58;24.70;32.60
12060;DHT22;6091;51.432;6.880;2023-02-10T08:50:25;24.70;32.60
12060;DHT22;6091;51.432;6.880;2023-02-10T08:52:53;24.70;32.50
12060;DHT22;6091;51.432;6.880;2023-02-10T08:55:20;24.70;32.50
12060;DHT22;6091;51.432;6.880;2023-02-10T08:57:47;24.70;32.50
12060;DHT22;6091;51.432;6.880;2023-02-10T09:00:15;24.70;32.50
12060;DHT22;6091;51.432;6.880;2023-02-10T09:02:42;25.20;32.80
12060;DHT22;6091;51.432;6.880;2023-02-10T09:05:09;24.80;32.50
12060;DHT22;6091;51.432;6.880;2023-02-10T09:07:37;24.80;32.50
12060;DHT22;6091;51.432;6.880;2023-02-10T09:10:05;24.90;32.50
12060;DHT22;6091;51.432;6.880;2023-02-10T09:12:40;24.90;32.50
12060;DHT22;6091;51.432;6.880;2023-02-10T09:15:08;24.90;32.50
12060;DHT22;6091;51.432;6.880;2023-02-10T09:17:36;24.90;32.40
12060;DHT22;6091;51.432;6.880;2023-02-10T09:20:03;24.90;32.40
12060;DHT22;6091;51.432;6.880;2023-02-10T09:22:31;25.00;32.40
12060;DHT22;6091;51.432;6.880;2023-02-10T09:24:58;25.00;32.40
12060;DHT22;6091;51.432;6.880;2023-02-10T09:27:26;25.00;32.40
12060;DHT22;6091;51.432;6.880;2023-02-10T09:29:53;25.00;32.30
12060;DHT22;6091;51.432;6.880;2023-02-10T09:32:20;25.10;32.30
12060;DHT22;6091;51.432;6.880;2023-02-10T09:34:47;25.10;32.30
12060;DHT22;6091;51.432;6.880;2023-02-10T09:37:14;25.10;32.30
12060;DHT22;6091;51.432;6.880;2023-02-10T09:39:41;25.20;32.30
12060;DHT22;6091;51.432;6.880;2023-02-10T09:42:30;25.20;32.30
12060;DHT22;6091;51.432;6.880;2023-02-10T09:45:18;25.20;32.00
12060;DHT22;6091;51.432;6.880;2023-02-10T09:47:58;25.30;32.00
12060;DHT22;6091;51.432;6.880;2023-02-10T09:51:01;25.30;32.20
12060;DHT22;6091;51.432;6.880;2023-02-10T09:53:38;25.30;32.10
12060;DHT22;6091;51.432;6.880;2023-02-10T09:56:12;25.40;32.30
12060;DHT22;6091;51.432;6.880;2023-02-10T09:58:48;25.40;32.10
12060;DHT22;6091;51.432;6.880;2023-02-10T10:01:48;25.40;32.10
12060;DHT22;6091;51.432;6.880;2023-02-10T10:04:20;25.50;32.10
12060;DHT22;6091;51.432;6.880;2023-02-10T10:06:56;25.50;32.10
12060;DHT22;6091;51.432;6.880;2023-02-10T10:09:43;25.60;32.00
12060;DHT22;6091;51.432;6.880;2023-02-10T10:12:25;25.60;32.00
12060;DHT22;6091;51.432;6.880;2023-02-10T10:14:52;25.50;32.00
12060;DHT22;6091;51.432;6.880;2023-02-10T10:18:08;25.50;32.20
12060;DHT22;6091;51.432;6.880;2023-02-10T10:20:53;25.60;32.00
12060;DHT22;6091;51.432;6.880;2023-02-10T10:24:08;25.70;32.10
12060;DHT22;6091;51.432;6.880;2023-02-10T10:29:56;25.80;31.80
12060;DHT22;6091;51.432;6.880;2023-02-10T10:32:48;25.90;31.90
12060;DHT22;6091;51.432;6.880;2023-02-10T10:35:31;26.00;31.80
12060;DHT22;6091;51.432;6.880;2023-02-10T10:38:14;26.00;31.90
12060;DHT22;6091;51.432;6.880;2023-02-10T10:40:47;26.00;31.90
12060;DHT22;6091;51.432;6.880;2023-02-10T10:43:27;26.00;32.00
12060;DHT22;6091;51.432;6.880;2023-02-10T10:46:03;26.10;32.10
12060;DHT22;6091;51.432;6.880;2023-02-10T10:48:38;26.10;31.90
12060;DHT22;6091;51.432;6.880;2023-02-10T10:51:08;26.10;32.10
12060;DHT22;6091;51.432;6.880;2023-02-10T10:53:43;26.20;32.00
12060;DHT22;6091;51.432;6.880;2023-02-10T10:56:15;26.20;31.90
12060;DHT22;6091;51.432;6.880;2023-02-10T10:59:31;26.20;31.80
12060;DHT22;6091;51.432;6.880;2023-02-10T11:02:18;26.40;31.50
12060;DHT22;6091;51.432;6.880;2023-02-10T11:05:00;26.50;31.40
12060;DHT22;6091;51.432;6.880;2023-02-10T11:07:33;26.50;31.40
12060;DHT22;6091;51.432;6.880;2023-02-10T11:10:03;26.60;31.70
12060;DHT22;6091;51.432;6.880;2023-02-10T11:12:37;26.70;31.70
12060;DHT22;6091;51.432;6.880;2023-02-10T11:18:02;26.90;31.10
12060;DHT22;6091;51.432;6.880;2023-02-10T11:20:34;27.00;31.40
12060;DHT22;6091;51.432;6.880;2023-02-10T11:23:14;27.00;31.20
12060;DHT22;6091;51.432;6.880;2023-02-10T11:25:46;27.10;30.80
12060;DHT22;6091;51.432;6.880;2023-02-10T11:28:25;26.80;30.60
12060;DHT22;6091;51.432;6.880;2023-02-10T11:31:06;27.10;30.80
12060;DHT22;6091;51.432;6.880;2023-02-10T11:34:12;27.10;30.70
12060;DHT22;6091;51.432;6.880;2023-02-10T11:36:42;27.00;30.60
12060;DHT22;6091;51.432;6.880;2023-02-10T11:39:31;27.00;30.70
12060;DHT22;6091;51.432;6.880;2023-02-10T11:42:20;27.00;30.40
12060;DHT22;6091;51.432;6.880;2023-02-10T11:47:37;27.00;30.50
12060;DHT22;6091;51.432;6.880;2023-02-10T11:50:25;27.00;30.80
12060;DHT22;6091;51.432;6.880;2023-02-10T11:52:54;27.00;30.50
12060;DHT22;6091;51.432;6.880;2023-02-10T11:55:25;27.10;31.00
12060;DHT22;6091;51.432;6.880;2023-02-10T12:07:25;27.60;30.50
12060;DHT22;6091;51.432;6.880;2023-02-10T12:10:37;27.80;30.60
12060;DHT22;6091;51.432;6.880;2023-02-10T12:16:30;28.20;30.20
12060;DHT22;6091;51.432;6.880;2023-02-10T12:19:17;28.20;30.60
12060;DHT22;6091;51.432;6.880;2023-02-10T12:25:11;28.50;30.00
12060;DHT22;6091;51.432;6.880;2023-02-10T12:28:04;28.60;30.00
12060;DHT22;6091;51.432;6.880;2023-02-10T12:34:06;28.80;29.80
12060;DHT22;6091;51.432;6.880;2023-02-10T12:42:17;29.10;29.60
12060;DHT22;6091;51.432;6.880;2023-02-10T12:48:30;29.30;30.00
12060;DHT22;6091;51.432;6.880;2023-02-10T12:54:40;29.40;29.60
12060;DHT22;6091;51.432;6.880;2023-02-10T12:57:27;29.50;29.40
12060;DHT22;6091;51.432;6.880;2023-02-10T13:00:07;29.40;28.90
12060;DHT22;6091;51.432;6.880;2023-02-10T13:02:52;29.30;28.90
12060;DHT22;6091;51.432;6.880;2023-02-10T13:05:38;29.20;29.30
12060;DHT22;6091;51.432;6.880;2023-02-10T13:08:35;29.30;29.20
12060;DHT22;6091;51.432;6.880;2023-02-10T13:14:06;29.20;28.90
12060;DHT22;6091;51.432;6.880;2023-02-10T13:16:46;29.10;29.10
12060;DHT22;6091;51.432;6.880;2023-02-10T13:25:16;29.00;29.30
12060;DHT22;6091;51.432;6.880;2023-02-10T13:30:42;29.80;29.60
12060;DHT22;6091;51.432;6.880;2023-02-10T13:36:23;28.80;29.10
12060;DHT22;6091;51.432;6.880;2023-02-10T13:39:20;28.70;29.20
12060;DHT22;6091;51.432;6.880;2023-02-10T13:42:02;28.60;29.20
12060;DHT22;6091;51.432;6.880;2023-02-10T13:44:37;28.40;29.30
12060;DHT22;6091;51.432;6.880;2023-02-10T13:47:25;28.30;29.50
12060;DHT22;6091;51.432;6.880;2023-02-10T13:50:02;28.20;29.50
12060;DHT22;6091;51.432;6.880;2023-02-10T13:52:50;28.10;29.50
12060;DHT22;6091;51.432;6.880;2023-02-10T13:55:36;28.00;29.50
12060;DHT22;6091;51.432;6.880;2023-02-10T14:00:48;27.80;29.60
12060;DHT22;6091;51.432;6.880;2023-02-10T14:03:27;27.70;29.50
12060;DHT22;6091;51.432;6.880;2023-02-10T14:06:03;27.70;29.50
12060;DHT22;6091;51.432;6.880;2023-02-10T14:08:43;27.70;29.50
12060;DHT22;6091;51.432;6.880;2023-02-10T14:11:39;27.60;29.40
12060;DHT22;6091;51.432;6.880;2023-02-10T14:14:39;27.60;29.40
12060;DHT22;6091;51.432;6.880;2023-02-10T14:19:42;27.50;29.50
12060;DHT22;6091;51.432;6.880;2023-02-10T14:22:29;27.40;29.50
12060;DHT22;6091;51.432;6.880;2023-02-10T14:25:25;27.30;29.50
12060;DHT22;6091;51.432;6.880;2023-02-10T14:27:57;27.40;29.60
12060;DHT22;6091;51.432;6.880;2023-02-10T14:30:39;27.20;29.60
12060;DHT22;6091;51.432;6.880;2023-02-10T14:33:19;27.20;29.70
12060;DHT22;6091;51.432;6.880;2023-02-10T14:35:52;27.20;29.70
12060;DHT22;6091;51.432;6.880;2023-02-10T14:38:26;27.20;29.70
12060;DHT22;6091;51.432;6.880;2023-02-10T14:40:58;27.20;29.70
12060;DHT22;6091;51.432;6.880;2023-02-10T14:43:40;27.10;29.70
12060;DHT22;6091;51.432;6.880;2023-02-10T14:46:17;27.10;29.70
12060;DHT22;6091;51.432;6.880;2023-02-10T14:48:47;27.00;29.80
12060;DHT22;6091;51.432;6.880;2023-02-10T14:51:21;27.00;29.80
12060;DHT22;6091;51.432;6.880;2023-02-10T14:53:50;26.90;29.90
12060;DHT22;6091;51.432;6.880;2023-02-10T14:56:26;26.90;29.90
12060;DHT22;6091;51.432;6.880;2023-02-10T14:58:55;26.90;30.50
12060;DHT22;6091;51.432;6.880;2023-02-10T15:01:30;26.80;29.90
12060;DHT22;6091;51.432;6.880;2023-02-10T15:04:00;26.70;30.40
12060;DHT22;6091;51.432;6.880;2023-02-10T15:06:29;26.60;30.30
12060;DHT22;6091;51.432;6.880;2023-02-10T15:09:06;26.70;30.10
12060;DHT22;6091;51.432;6.880;2023-02-10T15:11:49;26.70;30.10
12060;DHT22;6091;51.432;6.880;2023-02-10T15:17:43;26.70;30.20
12060;DHT22;6091;51.432;6.880;2023-02-10T15:30:53;26.40;30.70
12060;DHT22;6091;51.432;6.880;2023-02-10T15:33:51;26.40;30.60
12060;DHT22;6091;51.432;6.880;2023-02-10T15:44:58;26.50;30.20
12060;DHT22;6091;51.432;6.880;2023-02-10T15:49:55;26.40;30.20
12060;DHT22;6091;51.432;6.880;2023-02-10T15:52:33;26.40;30.30
12060;DHT22;6091;51.432;6.880;2023-02-10T15:55:22;26.40;30.30
12060;DHT22;6091;51.432;6.880;2023-02-10T15:57:55;26.30;30.30
12060;DHT22;6091;51.432;6.880;2023-02-10T16:00:25;26.30;30.40
12060;DHT22;6091;51.432;6.880;2023-02-10T16:02:56;26.20;30.20
12060;DHT22;6091;51.432;6.880;2023-02-10T16:05:25;26.20;30.30
12060;DHT22;6091;51.432;6.880;2023-02-10T16:07:52;26.20;30.30
12060;DHT22;6091;51.432;6.880;2023-02-10T16:10:24;26.20;30.30
12060;DHT22;6091;51.432;6.880;2023-02-10T16:12:52;26.10;30.30
12060;DHT22;6091;51.432;6.880;2023-02-10T16:15:21;26.10;30.30
12060;DHT22;6091;51.432;6.880;2023-02-10T16:18:01;26.10;30.20
12060;DHT22;6091;51.432;6.880;2023-02-10T16:20:32;26.10;30.30
12060;DHT22;6091;51.432;6.880;2023-02-10T16:22:59;26.00;30.20
12060;DHT22;6091;51.432;6.880;2023-02-10T16:25:34;26.00;30.30
12060;DHT22;6091;51.432;6.880;2023-02-10T16:28:01;26.00;30.20
12060;DHT22;6091;51.432;6.880;2023-02-10T16:30:28;26.00;30.30
12060;DHT22;6091;51.432;6.880;2023-02-10T16:32:56;25.90;30.30
12060;DHT22;6091;51.432;6.880;2023-02-10T16:35:23;25.90;30.30
12060;DHT22;6091;51.432;6.880;2023-02-10T16:37:52;25.90;30.40
12060;DHT22;6091;51.432;6.880;2023-02-10T16:40:27;25.80;30.30
12060;DHT22;6091;51.432;6.880;2023-02-10T16:42:58;25.80;30.40
12060;DHT22;6091;51.432;6.880;2023-02-10T16:45:28;25.80;30.40
12060;DHT22;6091;51.432;6.880;2023-02-10T16:47:57;25.80;30.40
12060;DHT22;6091;51.432;6.880;2023-02-10T16:50:40;25.80;30.40
12060;DHT22;6091;51.432;6.880;2023-02-10T16:53:09;25.80;30.50
12060;DHT22;6091;51.432;6.880;2023-02-10T16:55:38;25.70;30.50
12060;DHT22;6091;51.432;6.880;2023-02-10T16:58:07;25.70;30.50
12060;DHT22;6091;51.432;6.880;2023-02-10T17:00:38;25.60;30.40
12060;DHT22;6091;51.432;6.880;2023-02-10T17:03:05;25.60;30.40
12060;DHT22;6091;51.432;6.880;2023-02-10T17:05:32;25.60;30.40
12060;DHT22;6091;51.432;6.880;2023-02-10T17:08:00;25.60;30.40
12060;DHT22;6091;51.432;6.880;2023-02-10T17:10:29;25.60;30.50
12060;DHT22;6091;51.432;6.880;2023-02-10T17:12:57;25.60;30.50
12060;DHT22;6091;51.432;6.880;2023-02-10T17:15:24;25.60;30.50
12060;DHT22;6091;51.432;6.880;2023-02-10T17:17:52;25.50;30.40
12060;DHT22;6091;51.432;6.880;2023-02-10T17:20:37;25.50;30.50
12060;DHT22;6091;51.432;6.880;2023-02-10T17:23:04;25.50;30.60
12060;DHT22;6091;51.432;6.880;2023-02-10T17:25:33;25.40;30.40
12060;DHT22;6091;51.432;6.880;2023-02-10T17:28:04;25.40;30.40
12060;DHT22;6091;51.432;6.880;2023-02-10T17:30:34;25.40;30.50
12060;DHT22;6091;51.432;6.880;2023-02-10T17:33:20;25.30;30.40
12060;DHT22;6091;51.432;6.880;2023-02-10T17:35:51;25.30;30.40
12060;DHT22;6091;51.432;6.880;2023-02-10T17:38:18;25.20;30.40
12060;DHT22;6091;51.432;6.880;2023-02-10T17:41:07;25.20;30.40
12060;DHT22;6091;51.432;6.880;2023-02-10T17:43:34;25.10;30.40
12060;DHT22;6091;51.432;6.880;2023-02-10T17:46:02;25.10;30.40
12060;DHT22;6091;51.432;6.880;2023-02-10T17:48:29;25.00;30.40
12060;DHT22;6091;51.432;6.880;2023-02-10T17:51:03;25.00;30.50
12060;DHT22;6091;51.432;6.880;2023-02-10T17:53:31;25.00;30.60
12060;DHT22;6091;51.432;6.880;2023-02-10T17:55:59;24.90;30.50
12060;DHT22;6091;51.432;6.880;2023-02-10T17:58:30;24.90;31.30
12060;DHT22;6091;51.432;6.880;2023-02-10T18:00:58;24.80;30.50
12060;DHT22;6091;51.432;6.880;2023-02-10T18:03:26;24.80;30.50
12060;DHT22;6091;51.432;6.880;2023-02-10T18:05:55;24.70;30.40